Time;durP1;ratioP1;P1;durP2;ratioP2;P2;SDS_P1;SDS_P2;PMS_P1;PMS_P2;Temp;Humidity;BMP_temperature;BMP_pressure;BME280_temperature;BME280_humidity;BME280_pressure;Samples;Min_cycle;Max_cycle;Signal;HPM_P1;HPM_P2
2023/10/01 00:01:45;;;;;;;9.55;7.65;;;;;;;13.64;81.93;102119.97;3614905;39;20062;-68
2023/10/01 00:04:12;;;;;;;12.00;7.88;;;;;;;14.01;82.00;102171.13;3615374;39;20049;-66
2023/10/01 00:06:38;;;;;;;12.15;8.07;;;;;;;13.96;81.55;102168.72;3610354;39;20055;-66
2023/10/01 00:09:05;;;;;;;12.18;7.50;;;;;;;14.04;81.66;102184.50;3613911;39;20382;-65
2023/10/01 00:11:41;;;;;;;11.90;7.93;;;;;;;14.02;81.73;102183.69;3617102;39;21199;-67
2023/10/01 00:14:08;;;;;;;8.25;7.10;;;;;;;14.02;81.72;102189.09;3614009;39;20047;-66
2023/10/01 00:16:37;;;;;;;11.73;8.57;;;;;;;14.00;81.54;102180.22;3614237;39;20096;-65
2023/10/01 00:19:04;;;;;;;10.82;8.60;;;;;;;14.01;81.58;102185.53;3613485;39;20475;-66
2023/10/01 00:21:30;;;;;;;10.85;8.60;;;;;;;13.98;81.59;102183.00;3616254;39;20065;-66
2023/10/01 00:23:56;;;;;;;11.15;8.07;;;;;;;13.96;81.69;102186.75;3614704;39;20073;-66
2023/10/01 00:26:22;;;;;;;10.05;7.38;;;;;;;13.97;82.34;102185.78;3617268;39;20059;-66
2023/10/01 00:28:51;;;;;;;12.52;8.35;;;;;;;13.95;81.75;102183.16;3616050;39;20561;-66
2023/10/01 00:31:19;;;;;;;11.02;7.65;;;;;;;13.95;81.83;102188.56;3615192;39;20098;-66
2023/10/01 00:33:47;;;;;;;11.80;7.95;;;;;;;13.94;81.15;102182.28;3613572;39;20123;-67
2023/10/01 00:36:13;;;;;;;10.80;7.55;;;;;;;13.96;81.15;102184.06;3613722;39;20119;-66
2023/10/01 00:38:38;;;;;;;11.07;7.40;;;;;;;13.94;80.91;102184.13;3615499;39;20043;-65
2023/10/01 00:41:07;;;;;;;8.57;7.13;;;;;;;13.94;81.32;102185.00;3613667;39;20058;-66
2023/10/01 00:43:33;;;;;;;10.60;7.43;;;;;;;13.95;81.23;102180.44;3616928;39;20073;-66
2023/10/01 00:45:59;;;;;;;10.63;7.22;;;;;;;13.92;81.03;102175.22;3614299;39;20077;-67
2023/10/01 00:48:25;;;;;;;10.38;7.75;;;;;;;13.91;81.36;102168.06;3617102;39;20057;-66
2023/10/01 00:50:54;;;;;;;9.32;6.93;;;;;;;13.89;81.25;102169.97;3620368;39;20501;-66
2023/10/01 00:53:21;;;;;;;11.63;7.07;;;;;;;13.84;80.80;102163.97;3615385;39;20070;-66
2023/10/01 00:55:48;;;;;;;8.30;6.30;;;;;;;13.87;81.24;102167.38;3616436;39;20412;-66
2023/10/01 00:58:15;;;;;;;9.98;6.90;;;;;;;13.87;80.85;102155.69;3614992;39;20317;-66
2023/10/01 01:00:43;;;;;;;9.23;6.38;;;;;;;13.85;80.62;102155.75;3616395;39;20055;-67
2023/10/01 01:03:09;;;;;;;10.48;6.47;;;;;;;13.86;80.55;102156.63;3616643;39;20052;-66
2023/10/01 01:05:53;;;;;;;9.60;6.70;;;;;;;13.78;80.33;102131.84;3618879;39;20086;-67
2023/10/01 01:08:22;;;;;;;8.40;6.35;;;;;;;13.85;80.54;102142.25;3614563;39;20273;-66
2023/10/01 01:10:51;;;;;;;8.68;5.80;;;;;;;13.85;80.23;102138.66;3615632;39;20072;-67
2023/10/01 01:13:16;;;;;;;9.60;6.40;;;;;;;13.86;80.54;102129.59;3616114;39;20055;-68
2023/10/01 01:15:47;;;;;;;11.05;6.60;;;;;;;13.79;80.28;102123.66;3617980;39;20054;-67
2023/10/01 01:18:20;;;;;;;9.18;6.20;;;;;;;13.85;80.02;102130.56;3616954;39;20057;-67
2023/10/01 01:20:48;;;;;;;7.25;5.95;;;;;;;13.63;79.82;102090.31;3615656;39;20043;-67
2023/10/01 01:23:21;;;;;;;11.68;6.78;;;;;;;13.88;79.64;102127.69;3617729;39;20099;-69
2023/10/01 01:25:49;;;;;;;11.90;7.87;;;;;;;13.72;80.01;102095.22;3612432;39;20092;-67
2023/10/01 01:28:19;;;;;;;9.98;5.90;;;;;;;13.85;79.27;102130.56;3616229;39;20284;-67
2023/10/01 01:30:47;;;;;;;9.15;6.35;;;;;;;13.86;80.05;102129.59;3620419;39;20138;-69
2023/10/01 01:33:13;;;;;;;9.50;6.45;;;;;;;13.79;79.91;102118.25;3616869;39;20054;-66
2023/10/01 01:35:42;;;;;;;8.10;5.85;;;;;;;13.84;79.87;102126.13;3614884;39;20359;-67
2023/10/01 01:38:09;;;;;;;10.18;6.10;;;;;;;13.21;79.44;102006.09;3615215;39;20050;-67
2023/10/01 01:40:40;;;;;;;10.68;6.57;;;;;;;13.68;80.21;102091.81;3617984;39;20055;-67
2023/10/01 01:43:15;;;;;;;9.43;5.57;;;;;;;13.85;79.75;102122.44;3616842;39;20372;-69
2023/10/01 01:45:47;;;;;;;8.90;6.07;;;;;;;13.86;79.64;102114.28;3608746;39;20325;-67
2023/10/01 01:51:02;;;;;;;9.20;5.95;;;;;;;13.90;79.43;102105.03;3616822;39;20490;-66
2023/10/01 01:53:35;;;;;;;7.82;5.60;;;;;;;13.86;79.28;102094.44;3616301;39;20051;-67
2023/10/01 01:56:11;;;;;;;9.60;5.80;;;;;;;13.93;80.07;102104.00;3617051;39;20051;-66
2023/10/01 01:58:39;;;;;;;7.80;5.53;;;;;;;13.95;79.48;102104.75;3617965;39;20057;-66
2023/10/01 02:01:17;;;;;;;7.45;5.03;;;;;;;14.01;79.13;102119.78;3615693;39;20090;-67
2023/10/01 02:03:46;;;;;;;10.80;7.05;;;;;;;14.01;78.92;102117.94;3618315;39;20061;-67
2023/10/01 02:06:14;;;;;;;8.65;4.68;;;;;;;13.98;78.93;102109.13;3617583;39;20063;-67
2023/10/01 02:08:53;;;;;;;8.82;5.53;;;;;;;14.01;79.28;102112.53;3617864;39;20128;-67
2023/10/01 02:11:21;;;;;;;7.70;5.30;;;;;;;14.01;79.63;102107.13;3623159;39;20063;-67
2023/10/01 02:13:51;;;;;;;8.50;5.18;;;;;;;13.89;78.93;102086.19;3619129;39;20054;-68
2023/10/01 02:16:30;;;;;;;7.80;5.28;;;;;;;13.98;79.21;102098.31;3617234;39;20083;-67
2023/10/01 02:19:14;;;;;;;10.63;5.10;;;;;;;14.00;78.61;102099.13;3618528;39;20054;-66
2023/10/01 02:21:59;;;;;;;11.30;6.65;;;;;;;13.99;78.92;102097.38;3616843;39;20127;-65
2023/10/01 02:24:45;;;;;;;10.02;6.68;;;;;;;13.97;79.00;102083.94;3609470;39;20300;-66
2023/10/01 02:27:19;;;;;;;8.35;5.50;;;;;;;13.94;78.75;102081.41;3616433;39;20302;-66
2023/10/01 02:29:46;;;;;;;10.45;5.45;;;;;;;13.94;79.39;102084.97;3616089;39;20131;-66
2023/10/01 02:32:14;;;;;;;11.32;5.55;;;;;;;13.96;79.30;102093.00;3615351;39;20094;-66
2023/10/01 02:34:42;;;;;;;10.00;6.30;;;;;;;13.88;79.53;102082.59;3615557;39;20337;-66
2023/10/01 02:37:15;;;;;;;9.63;5.72;;;;;;;13.90;79.78;102077.13;3614317;39;20081;-66
2023/10/01 02:39:41;;;;;;;8.13;5.35;;;;;;;13.96;79.26;102087.59;3617435;39;20082;-67
2023/10/01 02:44:34;;;;;;;8.57;5.15;;;;;;;13.92;79.51;102091.41;3615081;39;20042;-67
2023/10/01 02:47:16;;;;;;;8.80;5.10;;;;;;;13.91;79.33;102101.34;3614793;39;20070;-66
2023/10/01 02:49:58;;;;;;;8.48;5.78;;;;;;;13.70;79.62;102062.91;3615561;39;20079;-66
2023/10/01 02:52:36;;;;;;;10.18;5.57;;;;;;;13.88;79.63;102101.53;3616767;39;20099;-67
2023/10/01 02:55:16;;;;;;;8.45;5.30;;;;;;;13.87;80.23;102102.50;3613668;39;20043;-66
2023/10/01 02:57:42;;;;;;;8.65;5.70;;;;;;;13.87;79.80;102098.91;3618021;39;20119;-66
2023/10/01 03:00:20;;;;;;;10.35;5.30;;;;;;;13.86;79.90;102102.56;3617881;39;20082;-66
2023/10/01 03:02:51;;;;;;;9.40;5.57;;;;;;;13.86;80.12;102099.84;3609528;39;20300;-66
2023/10/01 03:07:52;;;;;;;8.60;5.07;;;;;;;13.82;80.30;102096.47;3608672;39;20376;-67
2023/10/01 03:10:25;;;;;;;10.65;5.00;;;;;;;13.76;80.53;102096.78;3615081;39;20177;-68
2023/10/01 03:12:58;;;;;;;11.20;5.35;;;;;;;13.76;80.98;102095.94;3613599;39;20116;-67
2023/10/01 03:15:28;;;;;;;11.93;5.63;;;;;;;13.74;80.83;102097.84;3603401;39;20378;-66
2023/10/01 03:17:57;;;;;;;8.60;5.55;;;;;;;13.69;80.82;102096.25;3613283;39;20043;-66
2023/10/01 03:28:32;;;;;;;9.32;5.53;;;;;;;13.59;81.19;102095.03;3615186;39;19962;-66
2023/10/01 03:31:09;;;;;;;8.95;5.75;;;;;;;13.57;81.42;102105.03;3615121;39;20115;-66
2023/10/01 03:33:37;;;;;;;9.98;5.72;;;;;;;13.55;81.52;102108.78;3613939;39;20055;-67
2023/10/01 03:36:09;;;;;;;7.43;5.13;;;;;;;13.52;81.80;102101.72;3617208;39;20054;-66
2023/10/01 03:38:44;;;;;;;7.70;5.72;;;;;;;13.14;81.49;102031.69;3614371;39;20086;-67
2023/10/01 03:41:21;;;;;;;8.63;5.88;;;;;;;13.49;81.62;102093.78;3613739;39;20376;-66
2023/10/01 03:43:50;;;;;;;8.38;5.75;;;;;;;13.52;81.38;102096.31;3617984;39;20054;-67
2023/10/01 03:49:00;;;;;;;7.35;5.80;;;;;;;13.52;81.62;102095.44;3615940;39;20049;-68
2023/10/01 03:57:12;;;;;;;10.60;5.50;;;;;;;13.46;81.50;102093.94;3614087;39;20061;-66
2023/10/01 03:59:40;;;;;;;8.82;5.40;;;;;;;13.48;81.60;102094.75;3615859;39;20381;-67
2023/10/01 04:02:27;;;;;;;8.18;5.70;;;;;;;13.48;81.79;102100.16;3616302;39;20046;-66
2023/10/01 04:05:02;;;;;;;8.40;5.07;;;;;;;13.50;81.60;102090.09;3619909;39;20050;-65
2023/10/01 04:07:42;;;;;;;9.32;5.20;;;;;;;13.49;81.24;102093.78;3605650;39;20053;-67
2023/10/01 04:10:13;;;;;;;9.90;5.45;;;;;;;13.44;81.64;102079.63;3613475;39;20083;-67
2023/10/01 04:12:44;;;;;;;7.80;5.55;;;;;;;13.47;81.37;102080.34;3614736;39;20040;-66
2023/10/01 04:15:27;;;;;;;9.07;5.22;;;;;;;13.47;81.26;102076.78;3614124;39;20047;-67
2023/10/01 04:18:41;;;;;;;7.83;5.17;;;;;;;13.47;80.83;102087.56;3614970;39;20370;-67
2023/10/01 04:23:29;;;;;;;8.57;5.25;;;;;;;13.44;80.67;102083.19;3615879;39;20047;-66
2023/10/01 04:26:05;;;;;;;9.27;5.57;;;;;;;13.46;80.80;102089.41;3616078;39;20047;-66
2023/10/01 04:28:37;;;;;;;9.50;6.15;;;;;;;13.47;80.58;102095.69;3618288;39;20057;-66
2023/10/01 04:31:09;;;;;;;8.75;5.82;;;;;;;13.46;80.47;102088.53;3614684;39;20119;-67
2023/10/01 04:33:42;;;;;;;10.40;5.45;;;;;;;13.47;80.22;102087.56;3622338;39;20333;-66
2023/10/01 04:36:11;;;;;;;11.70;5.72;;;;;;;13.49;80.52;102082.97;3614837;39;20087;-67
2023/10/01 04:38:41;;;;;;;10.88;5.63;;;;;;;13.48;80.13;102081.25;3614772;39;20054;-66
2023/10/01 04:41:16;;;;;;;9.48;5.82;;;;;;;13.47;80.30;102077.63;3616670;39;20058;-68
2023/10/01 04:43:51;;;;;;;9.23;5.75;;;;;;;13.48;80.38;102073.13;3616898;39;20055;-66
2023/10/01 04:46:24;;;;;;;10.23;5.63;;;;;;;13.45;80.19;102071.47;3618868;39;20455;-66
2023/10/01 04:48:51;;;;;;;9.38;5.82;;;;;;;13.49;80.50;102080.28;3617273;39;20063;-67
2023/10/01 04:51:17;;;;;;;7.15;5.18;;;;;;;13.49;80.21;102080.28;3615534;39;20883;-67
2023/10/01 04:53:47;;;;;;;8.20;5.57;;;;;;;13.50;80.15;102076.59;3618654;39;20043;-66
2023/10/01 04:56:25;;;;;;;9.55;5.60;;;;;;;13.50;80.07;102078.44;3616312;39;20044;-66
2023/10/01 04:58:54;;;;;;;8.93;5.80;;;;;;;13.36;79.73;102054.88;3617300;39;20058;-66
2023/10/01 05:01:24;;;;;;;9.27;5.85;;;;;;;13.46;79.91;102085.84;3616860;39;20062;-68
2023/10/01 05:03:52;;;;;;;10.77;5.88;;;;;;;13.49;79.83;102082.97;3615161;39;20034;-68
2023/10/01 05:06:19;;;;;;;11.27;6.20;;;;;;;13.50;80.15;102079.31;3616923;39;20066;-67
2023/10/01 05:08:49;;;;;;;11.32;6.07;;;;;;;13.48;79.42;102086.63;3616455;39;20390;-67
2023/10/01 05:11:21;;;;;;;10.45;5.88;;;;;;;13.34;80.21;102062.19;3615695;39;20086;-67
2023/10/01 05:13:51;;;;;;;10.15;5.60;;;;;;;13.48;79.81;102089.34;3616557;39;20611;-67
2023/10/01 05:16:26;;;;;;;8.60;5.75;;;;;;;13.30;80.05;102061.47;3616763;39;20744;-65
2023/10/01 05:19:13;;;;;;;9.93;5.68;;;;;;;13.47;80.07;102079.47;3620635;39;20050;-68
2023/10/01 05:21:46;;;;;;;13.10;6.00;;;;;;;13.47;80.18;102087.56;3614603;39;20057;-66
2023/10/01 05:24:34;;;;;;;12.43;6.05;;;;;;;13.45;80.08;102082.28;3614472;39;20046;-66
2023/10/01 05:27:08;;;;;;;11.13;5.97;;;;;;;13.44;80.99;102088.59;3614341;39;20383;-67
2023/10/01 05:29:34;;;;;;;7.70;5.43;;;;;;;13.43;80.42;102086.00;3615597;39;20055;-66
2023/10/01 05:32:02;;;;;;;9.43;5.57;;;;;;;13.47;80.87;102101.94;3616478;39;20050;-67
2023/10/01 05:34:28;;;;;;;8.25;5.55;;;;;;;13.49;80.21;102093.78;3615125;39;20046;-66
2023/10/01 05:37:08;;;;;;;9.23;5.63;;;;;;;13.47;80.49;102096.53;3618624;39;20054;-66
2023/10/01 05:42:25;;;;;;;9.95;6.00;;;;;;;13.45;80.77;102095.78;3617458;39;20095;-66
2023/10/01 05:44:56;;;;;;;10.85;5.95;;;;;;;13.48;81.08;102113.66;3616462;39;20069;-66
2023/10/01 05:47:22;;;;;;;11.30;5.75;;;;;;;13.44;80.79;102112.03;3613608;39;20069;-67
2023/10/01 05:49:53;;;;;;;8.95;5.88;;;;;;;13.45;81.16;102114.69;3616734;39;20365;-67
2023/10/01 05:52:20;;;;;;;11.30;6.22;;;;;;;13.30;81.28;102093.03;3615184;39;20066;-68
2023/10/01 05:54:52;;;;;;;9.75;6.07;;;;;;;13.39;81.05;102100.63;3617232;39;20066;-68
2023/10/01 05:57:21;;;;;;;9.40;6.05;;;;;;;13.50;81.27;102108.16;3618798;39;20078;-67
2023/10/01 05:59:56;;;;;;;9.68;5.57;;;;;;;13.45;81.56;102086.81;3614413;39;20082;-67
2023/10/01 06:02:42;;;;;;;10.10;5.82;;;;;;;13.50;81.27;102095.50;3607728;39;20063;-68
2023/10/01 06:07:56;;;;;;;11.60;5.80;;;;;;;13.48;81.55;102102.84;3615259;39;20057;-68
2023/10/01 06:10:35;;;;;;;11.77;5.93;;;;;;;13.49;81.66;102095.63;3613872;39;20058;-68
2023/10/01 06:13:06;;;;;;;9.55;5.55;;;;;;;13.49;81.63;102103.72;3613231;39;20058;-68
2023/10/01 06:15:33;;;;;;;10.13;6.13;;;;;;;13.12;82.15;102036.28;3606876;39;20339;-69
2023/10/01 06:18:05;;;;;;;9.55;5.40;;;;;;;13.54;81.92;102101.63;3616364;39;20066;-69
2023/10/01 06:20:33;;;;;;;9.35;6.10;;;;;;;13.59;82.04;102105.81;3616521;39;20298;-69
2023/10/01 06:22:59;;;;;;;9.65;5.93;;;;;;;13.68;82.01;102101.75;3617548;39;20292;-68
2023/10/01 06:25:40;;;;;;;10.05;6.03;;;;;;;13.77;81.77;102095.00;3619017;39;20095;-68
2023/10/01 06:28:09;;;;;;;7.97;5.18;;;;;;;13.83;81.09;102102.75;3616707;39;20058;-68
2023/10/01 06:30:40;;;;;;;9.70;5.63;;;;;;;13.85;80.80;102103.53;3615260;39;20051;-68
2023/10/01 06:33:24;;;;;;;11.32;6.40;;;;;;;13.78;81.05;102084.06;3614123;39;20055;-67
2023/10/01 06:36:19;;;;;;;10.30;6.10;;;;;;;13.97;80.91;102101.97;3615525;39;20046;-68
2023/10/01 06:38:48;;;;;;;9.88;5.88;;;;;;;13.98;81.01;102085.66;3617069;39;20042;-68
2023/10/01 06:41:22;;;;;;;10.68;5.95;;;;;;;13.74;81.24;102057.31;3614106;39;20059;-69
2023/10/01 06:43:48;;;;;;;11.98;5.80;;;;;;;14.10;81.42;102106.59;3614204;39;20046;-68
2023/10/01 06:46:27;;;;;;;11.90;6.68;;;;;;;14.19;81.14;102104.34;3616069;39;20066;-68
2023/10/01 06:48:58;;;;;;;11.30;6.28;;;;;;;14.24;80.83;102094.13;3615183;39;20135;-68
2023/10/01 06:51:26;;;;;;;12.43;6.47;;;;;;;14.28;80.54;102104.72;3615560;39;20046;-67
2023/10/01 06:54:05;;;;;;;12.85;6.93;;;;;;;14.29;80.72;102090.22;3615849;39;20086;-66
2023/10/01 06:56:35;;;;;;;25.20;14.05;;;;;;;14.39;80.66;102093.25;3614987;39;20061;-66
2023/10/01 07:01:42;;;;;;;13.10;6.38;;;;;;;14.37;80.66;102076.28;3614870;39;20045;-68
2023/10/01 07:04:09;;;;;;;15.05;6.63;;;;;;;14.56;80.73;102093.19;3617480;39;20526;-67
2023/10/01 07:06:36;;;;;;;11.57;6.25;;;;;;;14.62;80.64;102091.97;3614792;39;20086;-68
2023/10/01 07:09:07;;;;;;;10.18;6.25;;;;;;;14.65;79.40;102083.66;3612817;39;20115;-68
2023/10/01 07:11:33;;;;;;;12.27;6.30;;;;;;;14.77;79.98;102085.63;3614975;39;20087;-67
2023/10/01 07:14:03;;;;;;;11.65;6.07;;;;;;;14.87;79.89;102085.97;3614702;39;20050;-67
2023/10/01 07:16:44;;;;;;;11.98;6.00;;;;;;;14.65;79.37;102023.25;3613480;39;20050;-67
2023/10/01 07:19:11;;;;;;;11.90;6.32;;;;;;;15.13;78.06;102091.63;3613521;39;20075;-66
2023/10/01 07:21:41;;;;;;;11.07;6.20;;;;;;;15.29;77.87;102098.75;3617716;39;20057;-67
2023/10/01 07:24:11;;;;;;;10.57;6.15;;;;;;;15.52;78.10;102108.16;3613037;39;20348;-66
2023/10/01 07:26:41;;;;;;;11.25;6.38;;;;;;;15.72;76.93;102095.22;3614607;39;20066;-67
2023/10/01 07:29:07;;;;;;;11.80;6.45;;;;;;;15.87;76.09;102099.69;3617738;39;20090;-66
2023/10/01 07:31:35;;;;;;;13.95;6.30;;;;;;;16.06;75.35;102103.94;3615163;39;20049;-67
2023/10/01 07:34:12;;;;;;;11.07;6.05;;;;;;;16.20;75.01;102107.47;3612901;39;20112;-65
2023/10/01 07:36:43;;;;;;;11.77;6.50;;;;;;;16.41;74.64;102110.63;3615191;39;20043;-66
2023/10/01 07:39:13;;;;;;;12.60;6.55;;;;;;;16.63;74.54;102112.78;3617608;39;20094;-66
2023/10/01 07:41:39;;;;;;;10.35;6.07;;;;;;;16.82;73.34;102108.88;3616265;39;20343;-67
2023/10/01 07:44:09;;;;;;;11.93;6.50;;;;;;;16.94;72.45;102108.91;3613565;39;20055;-66
2023/10/01 07:46:36;;;;;;;13.65;6.47;;;;;;;17.11;71.32;102115.91;3613858;39;20059;-67
2023/10/01 07:49:03;;;;;;;12.45;6.15;;;;;;;17.25;70.97;102122.22;3618209;39;20381;-66
2023/10/01 07:51:35;;;;;;;13.05;6.35;;;;;;;17.46;70.78;102128.03;3616304;39;20063;-67
2023/10/01 07:54:11;;;;;;;11.00;5.93;;;;;;;17.58;70.67;102133.47;3617893;39;20050;-66
2023/10/01 07:56:51;;;;;;;11.35;6.45;;;;;;;17.59;69.53;102109.84;3620919;39;20274;-67
2023/10/01 07:59:28;;;;;;;13.10;7.00;;;;;;;17.85;68.71;102130.63;3616311;39;20159;-67
2023/10/01 08:07:15;;;;;;;10.52;5.90;;;;;;;18.13;67.39;102131.38;3619845;39;20061;-66
2023/10/01 08:09:52;;;;;;;10.15;6.05;;;;;;;18.25;68.51;102107.84;3616688;39;20059;-67
2023/10/01 08:15:29;;;;;;;10.60;6.25;;;;;;;18.69;67.94;102115.41;3614599;39;20353;-66
2023/10/01 08:17:56;;;;;;;10.60;6.55;;;;;;;18.95;66.65;102102.53;3619244;39;20382;-66
2023/10/01 08:20:22;;;;;;;13.07;6.85;;;;;;;19.10;65.97;102121.44;3617775;39;20139;-66
2023/10/01 08:25:34;;;;;;;11.57;6.90;;;;;;;19.28;64.62;102135.47;3618108;39;20127;-66
2023/10/01 08:30:39;;;;;;;13.10;6.70;;;;;;;19.47;63.81;102135.78;3614904;39;20084;-66
2023/10/01 08:33:19;;;;;;;12.68;6.45;;;;;;;19.62;63.55;102142.75;3614482;39;20054;-66
2023/10/01 08:36:12;;;;;;;12.20;6.68;;;;;;;19.82;63.52;102141.22;3614793;39;20070;-66
2023/10/01 08:38:47;;;;;;;11.15;6.68;;;;;;;19.88;62.56;102140.69;3614874;39;20061;-67
2023/10/01 08:41:35;;;;;;;12.23;6.60;;;;;;;20.02;62.72;102142.34;3617151;39;20065;-67
2023/10/01 08:44:11;;;;;;;12.00;7.20;;;;;;;20.07;62.61;102147.41;3615625;39;20039;-67
2023/10/01 08:46:40;;;;;;;13.55;6.60;;;;;;;20.20;62.70;102144.53;3616776;39;20058;-67
2023/10/01 08:49:23;;;;;;;11.90;6.68;;;;;;;20.34;62.45;102142.44;3616898;39;20055;-67
2023/10/01 08:51:53;;;;;;;13.35;6.63;;;;;;;20.52;61.66;102136.44;3617647;39;20065;-66
2023/10/01 08:54:24;;;;;;;12.18;6.32;;;;;;;20.74;61.34;102144.63;3620426;39;20413;-68
2023/10/01 08:56:57;;;;;;;13.07;6.90;;;;;;;20.88;60.52;102145.31;3610418;39;20363;-66
2023/10/01 08:59:23;;;;;;;9.52;6.15;;;;;;;20.83;60.05;102121.94;3615179;39;20067;-67
2023/10/01 09:01:52;;;;;;;10.25;6.22;;;;;;;21.13;60.36;102141.38;3614956;39;20055;-66
2023/10/01 09:07:41;;;;;;;12.18;6.45;;;;;;;21.44;59.59;102148.69;3588508;40;20099;-67
2023/10/01 09:10:15;;;;;;;13.35;6.78;;;;;;;21.62;59.00;102150.81;3612766;39;20050;-67
2023/10/01 09:12:46;;;;;;;10.05;6.10;;;;;;;21.71;58.48;102144.53;3616561;39;20061;-67
2023/10/01 09:15:29;;;;;;;12.80;7.20;;;;;;;21.85;58.03;102141.44;3618582;39;20070;-66
2023/10/01 09:17:58;;;;;;;11.02;6.45;;;;;;;22.05;57.81;102145.13;3616632;39;20443;-66
2023/10/01 09:21:03;;;;;;;15.32;9.35;;;;;;;22.10;57.72;102134.59;3614719;39;20055;-66
2023/10/01 09:23:54;;;;;;;12.68;6.63;;;;;;;22.29;58.32;102132.97;3615499;39;20054;-67
2023/10/01 09:26:53;;;;;;;13.73;6.43;;;;;;;22.34;56.42;102131.56;3615090;39;20420;-66
2023/10/01 09:29:32;;;;;;;11.77;6.60;;;;;;;22.40;56.59;102125.53;3616461;39;20046;-66
2023/10/01 09:31:58;;;;;;;11.48;7.00;;;;;;;22.45;56.71;102128.72;3616254;39;20106;-66
2023/10/01 09:34:35;;;;;;;13.85;7.00;;;;;;;22.53;57.30;102107.97;3613709;39;20447;-67
2023/10/01 09:37:34;;;;;;;11.20;6.03;;;;;;;22.83;56.20;102110.56;3616576;39;20049;-65
2023/10/01 09:40:32;;;;;;;10.95;6.40;;;;;;;22.93;54.90;102103.25;3613907;39;20317;-65
2023/10/01 09:42:57;;;;;;;13.75;6.82;;;;;;;23.04;56.63;102107.72;3614737;39;20047;-64
2023/10/01 09:45:41;;;;;;;11.65;6.40;;;;;;;23.26;56.81;102112.03;3605659;39;20051;-65
2023/10/01 09:48:28;;;;;;;11.30;6.63;;;;;;;23.38;54.56;102110.88;3608665;39;20061;-64
2023/10/01 09:51:14;;;;;;;11.23;6.63;;;;;;;23.37;54.18;102114.63;3616774;39;20342;-65
2023/10/01 09:54:02;;;;;;;10.02;5.90;;;;;;;23.50;55.35;102113.44;3615575;39;20039;-66
2023/10/01 09:56:30;;;;;;;11.55;6.47;;;;;;;23.71;55.05;102116.88;3615669;39;20404;-66
2023/10/01 09:59:11;;;;;;;10.73;6.20;;;;;;;23.89;54.68;102114.22;3616655;39;20377;-64
2023/10/01 10:01:42;;;;;;;9.38;5.90;;;;;;;24.11;54.20;102104.72;3617102;39;20074;-64
2023/10/01 10:04:20;;;;;;;12.43;6.07;;;;;;;24.23;53.43;102106.25;3615022;39;20051;-64
2023/10/01 10:06:59;;;;;;;9.45;6.05;;;;;;;24.35;54.94;102108.78;3614321;39;20112;-65
2023/10/01 10:09:29;;;;;;;11.90;6.35;;;;;;;24.44;52.64;102106.00;3617070;39;20079;-65
2023/10/01 10:11:55;;;;;;;10.35;6.13;;;;;;;24.51;52.89;102114.50;3615588;39;20046;-63
2023/10/01 10:14:27;;;;;;;10.45;6.03;;;;;;;24.66;52.34;102112.94;3615309;39;20082;-65
2023/10/01 10:17:00;;;;;;;11.73;6.00;;;;;;;24.69;52.86;102109.88;3614711;39;20050;-63
2023/10/01 10:19:31;;;;;;;12.27;6.25;;;;;;;24.76;52.06;102110.97;3616594;39;20126;-64
2023/10/01 10:24:36;;;;;;;9.95;6.32;;;;;;;24.76;52.47;102105.47;3613277;39;20035;-65
2023/10/01 10:27:09;;;;;;;11.93;5.93;;;;;;;24.95;51.84;102101.69;3615762;39;20054;-63
2023/10/01 10:29:46;;;;;;;;;;;;;;;24.83;49.84;102102.09;3617852;39;20055;-65
2023/10/01 10:32:16;;;;;;;10.98;6.28;;;;;;;24.90;51.87;102093.06;3614931;39;19951;-65
2023/10/01 10:35:03;;;;;;;11.68;6.35;;;;;;;25.16;51.44;102086.78;3616264;39;20065;-65
2023/10/01 10:37:35;;;;;;;10.90;6.15;;;;;;;25.30;52.50;102085.34;3615993;39;20051;-64
2023/10/01 10:40:22;;;;;;;10.55;5.95;;;;;;;25.47;49.85;102089.94;3618238;39;20062;-63
2023/10/01 10:42:57;;;;;;;11.20;6.03;;;;;;;25.58;50.17;102084.16;3615792;39;20055;-65
2023/10/01 10:45:31;;;;;;;11.50;6.70;;;;;;;25.75;50.17;102081.47;3614968;39;20382;-65
2023/10/01 10:48:04;;;;;;;10.00;6.32;;;;;;;25.83;49.64;102085.19;3615523;39;20070;-64
2023/10/01 10:50:48;;;;;;;10.60;6.22;;;;;;;26.00;48.81;102088.88;3616568;39;20050;-65
2023/10/01 10:53:23;;;;;;;9.25;5.70;;;;;;;26.01;48.78;102079.59;3619649;39;20431;-64
2023/10/01 10:56:35;;;;;;;12.00;6.68;;;;;;;26.20;48.58;102081.22;3618034;39;20158;-65
2023/10/01 10:59:03;;;;;;;10.77;6.05;;;;;;;26.46;48.62;102083.88;3615729;39;20386;-64
2023/10/01 11:01:46;;;;;;;11.27;6.30;;;;;;;26.47;47.50;102074.56;3615571;39;20097;-65
2023/10/01 11:04:18;;;;;;;11.05;6.20;;;;;;;26.56;48.08;102078.22;3614420;39;20066;-64
2023/10/01 11:06:43;;;;;;;11.07;6.50;;;;;;;26.62;47.24;102080.31;3617382;39;20103;-64
2023/10/01 11:09:24;;;;;;;11.60;6.30;;;;;;;26.77;47.29;102072.25;3615583;39;20051;-64
2023/10/01 11:12:19;;;;;;;11.73;6.40;;;;;;;27.04;46.14;102073.78;3614450;39;20310;-65
2023/10/01 11:15:19;;;;;;;11.55;6.20;;;;;;;27.13;45.86;102082.94;3614965;39;20401;-64
2023/10/01 11:17:42;;;;;;;9.95;5.75;;;;;;;27.06;45.85;102088.28;3614913;39;20063;-64
2023/10/01 11:20:22;;;;;;;10.68;6.03;;;;;;;27.12;45.98;102076.56;3612649;39;20057;-64
2023/10/01 11:22:54;;;;;;;10.90;6.53;;;;;;;27.19;45.92;102065.72;3616977;39;20050;-66
2023/10/01 11:25:22;;;;;;;11.88;7.05;;;;;;;27.41;45.10;102065.00;3614335;39;20055;-63
2023/10/01 11:28:06;;;;;;;13.60;6.70;;;;;;;27.37;44.97;102058.09;3615301;39;20055;-65
2023/10/01 11:30:42;;;;;;;13.25;7.10;;;;;;;27.50;46.50;102063.94;3617830;39;20047;-64
2023/10/01 11:35:59;;;;;;;11.32;6.60;;;;;;;27.87;45.68;102047.78;3619954;39;20439;-64
2023/10/01 11:38:27;;;;;;;12.18;7.05;;;;;;;27.97;42.79;102049.31;3614361;39;20050;-64
2023/10/01 11:41:09;;;;;;;10.98;6.63;;;;;;;27.92;43.53;102048.97;3615361;39;20082;-64
2023/10/01 11:44:02;;;;;;;9.82;6.10;;;;;;;27.74;43.25;102026.22;3618292;39;20095;-65
2023/10/01 11:46:35;;;;;;;10.75;6.47;;;;;;;27.92;43.35;102050.88;3614815;39;20055;-64
2023/10/01 11:49:06;;;;;;;12.23;6.97;;;;;;;27.91;44.97;102047.25;3616929;39;20090;-64
2023/10/01 11:51:50;;;;;;;11.60;6.65;;;;;;;28.05;43.94;102042.84;3615171;39;20115;-64
2023/10/01 11:54:45;;;;;;;11.52;6.60;;;;;;;28.24;43.02;102041.56;3613830;39;20099;-64
2023/10/01 11:57:22;;;;;;;11.38;6.35;;;;;;;28.15;41.83;102039.88;3614460;39;20498;-62
2023/10/01 11:59:58;;;;;;;10.70;6.43;;;;;;;28.36;42.98;102036.47;3613517;39;20043;-65
2023/10/01 12:02:33;;;;;;;11.63;6.78;;;;;;;28.57;41.97;102038.59;3612766;39;20058;-64
2023/10/01 12:05:04;;;;;;;12.50;6.65;;;;;;;28.60;41.33;102038.22;3616789;39;20081;-65
2023/10/01 12:07:39;;;;;;;13.65;7.32;;;;;;;28.54;41.04;102031.50;3616472;39;20050;-65
2023/10/01 12:10:07;;;;;;;11.60;7.03;;;;;;;28.42;41.55;102021.94;3617240;39;20050;-63
2023/10/01 12:12:37;;;;;;;11.88;6.95;;;;;;;28.43;41.60;102024.50;3615428;39;20139;-65
2023/10/01 12:17:49;;;;;;;12.90;7.03;;;;;;;28.31;41.28;102014.88;3614848;39;20084;-65
2023/10/01 12:20:28;;;;;;;11.65;7.07;;;;;;;28.35;41.27;102010.69;3613593;39;20043;-64
2023/10/01 12:23:11;;;;;;;66.53;54.88;;;;;;;28.34;41.68;102000.69;3615825;39;20386;-65
2023/10/01 12:26:31;;;;;;;58.42;49.20;;;;;;;28.60;41.00;102010.56;3614644;39;20164;-64
2023/10/01 12:29:42;;;;;;;11.95;7.07;;;;;;;28.80;41.06;102006.25;3615321;39;20123;-64
2023/10/01 12:31:34;;;;;;;12.95;6.95;;;;;;;28.97;40.82;101995.88;3612514;39;20116;-64
2023/10/01 12:34:00;;;;;;;12.18;7.13;;;;;;;29.14;40.34;101996.59;3614628;39;20059;-64
2023/10/01 12:36:32;;;;;;;11.73;7.47;;;;;;;29.17;41.98;101996.22;3616953;39;20297;-66
2023/10/01 12:41:56;;;;;;;11.77;6.85;;;;;;;29.31;40.82;101984.31;3615966;39;20327;-64
2023/10/01 12:44:34;;;;;;;12.43;7.55;;;;;;;29.16;40.02;101986.19;3616536;39;20402;-65
2023/10/01 12:47:09;;;;;;;12.70;7.07;;;;;;;29.14;40.21;101985.50;3617279;39;20242;-64
2023/10/01 12:49:36;;;;;;;12.40;7.10;;;;;;;29.31;40.32;101989.00;3620132;39;20090;-65
2023/10/01 12:52:05;;;;;;;9.70;6.63;;;;;;;29.41;40.57;101991.47;3615690;39;20508;-64